createdAt,value
2019-02-06T00:00:32.493Z,26.6
2019-02-06T00:01:16.540Z,26.6
2019-02-06T00:02:06.316Z,26.6
2019-02-06T00:02:59.506Z,26.6
2019-02-06T00:03:46.984Z,26.6
2019-02-06T00:04:37.022Z,26.6
2019-02-06T00:05:26.574Z,26.6
2019-02-06T00:06:16.385Z,26.6
2019-02-06T00:07:06.469Z,26.6
2019-02-06T00:07:56.587Z,26.6
2019-02-06T00:08:49.333Z,26.6
2019-02-06T00:09:36.660Z,26.6
2019-02-06T00:10:27.389Z,26.6
2019-02-06T00:11:16.671Z,26.6
2019-02-06T00:12:07.074Z,26.6
2019-02-06T00:12:57.390Z,26.6
2019-02-06T00:13:47.681Z,26.6
2019-02-06T00:14:38.617Z,26.6
2019-02-06T00:15:27.065Z,26.6
2019-02-06T00:16:17.750Z,26.6
2019-02-06T00:17:06.704Z,26.6
2019-02-06T00:17:58.605Z,26.6
2019-02-06T00:18:47.546Z,26.6
2019-02-06T00:19:36.903Z,26.6
2019-02-06T00:20:28.216Z,26.6
2019-02-06T00:21:21.252Z,26.6
2019-02-06T00:22:07.669Z,26.6
2019-02-06T00:22:57.447Z,26.6
2019-02-06T00:23:50.609Z,26.6
2019-02-06T00:24:38.514Z,26.5
2019-02-06T00:25:27.617Z,26.5
2019-02-06T00:26:17.681Z,26.5
2019-02-06T00:27:08.016Z,26.6
2019-02-06T00:27:58.083Z,26.5
2019-02-06T00:28:47.866Z,26.5
2019-02-06T00:29:38.554Z,26.5
2019-02-06T00:30:28.001Z,26.5
2019-02-06T00:31:18.293Z,26.5
2019-02-06T00:32:08.753Z,26.5
2019-02-06T00:33:00.936Z,26.5
2019-02-06T00:33:48.851Z,26.4
2019-02-06T00:34:38.226Z,26.4
2019-02-06T00:35:31.395Z,26.5
2019-02-06T00:36:19.186Z,26.4
2019-02-06T00:37:08.843Z,26.5
2019-02-06T00:37:59.113Z,26.4
2019-02-06T00:38:48.863Z,26.4
2019-02-06T00:39:38.968Z,26.4
2019-02-06T00:40:29.513Z,26.4
2019-02-06T00:41:18.453Z,26.4
2019-02-06T00:42:11.627Z,26.4
2019-02-06T00:42:59.115Z,26.4
2019-02-06T00:43:49.181Z,26.4
2019-02-06T00:44:39.370Z,26.4
2019-02-06T00:45:29.434Z,26.4
2019-02-06T00:46:19.632Z,26.4
2019-02-06T00:47:10.007Z,26.4
2019-02-06T00:47:59.360Z,26.4
2019-02-06T00:48:49.551Z,26.4
2019-02-06T00:49:39.615Z,26.4
2019-02-06T00:50:29.442Z,26.4
2019-02-06T00:51:21.989Z,26.4
2019-02-06T00:52:09.890Z,26.4
2019-02-06T00:53:00.125Z,26.4
2019-02-06T00:53:50.169Z,26.4
2019-02-06T00:54:40.319Z,26.4
2019-02-06T00:55:30.144Z,26.4
2019-02-06T00:56:20.084Z,26.4
2019-02-06T00:57:11.142Z,26.4
2019-02-06T00:58:00.029Z,26.4
2019-02-06T00:58:50.261Z,26.4
2019-02-06T00:59:40.109Z,26.4
2019-02-06T01:00:32.844Z,26.4
2019-02-06T01:01:20.711Z,26.4
2019-02-06T01:02:10.871Z,26.4
2019-02-06T01:03:00.831Z,26.3
2019-02-06T01:03:50.749Z,26.4
2019-02-06T01:04:40.367Z,26.4
2019-02-06T01:05:43.762Z,26.3
2019-02-06T01:06:22.631Z,26.3
2019-02-06T01:07:10.973Z,26.3
2019-02-06T01:08:01.187Z,26.3
2019-02-06T01:08:51.526Z,26.3
2019-02-06T01:09:42.118Z,26.3
2019-02-06T01:10:31.150Z,26.3
2019-02-06T01:11:20.869Z,26.3
2019-02-06T01:12:11.038Z,26.3
2019-02-06T01:13:01.318Z,26.3
2019-02-06T01:13:50.893Z,26.3
2019-02-06T01:14:41.206Z,26.3
2019-02-06T01:15:33.685Z,26.3
2019-02-06T01:16:22.068Z,26.3
2019-02-06T01:17:11.559Z,26.3
2019-02-06T01:18:01.642Z,26.3
2019-02-06T01:18:51.737Z,26.3
2019-02-06T01:19:42.156Z,26.3
2019-02-06T01:20:31.779Z,26.3
2019-02-06T01:21:22.573Z,26.3
2019-02-06T01:22:11.504Z,26.3
2019-02-06T01:23:01.465Z,26.3
2019-02-06T01:23:52.623Z,26.3
2019-02-06T01:24:44.519Z,26.3
2019-02-06T01:25:32.222Z,26.3
2019-02-06T01:26:22.605Z,26.3
2019-02-06T01:27:12.385Z,26.3
2019-02-06T01:28:02.977Z,26.3
2019-02-06T01:28:52.640Z,26.3
2019-02-06T01:29:42.484Z,26.3
2019-02-06T01:30:34.204Z,26.3
2019-02-06T01:31:22.819Z,26.3
2019-02-06T01:32:12.636Z,26.2
2019-02-06T01:33:02.997Z,26.3
2019-02-06T01:33:53.066Z,26.3
2019-02-06T01:34:43.136Z,26.3
2019-02-06T01:35:33.014Z,26.2
2019-02-06T01:36:23.154Z,26.2
2019-02-06T01:37:13.369Z,26.2
2019-02-06T01:38:02.737Z,26.2
2019-02-06T01:38:52.536Z,26.2
2019-02-06T01:39:45.154Z,26.2
2019-02-06T01:40:33.489Z,26.2
2019-02-06T01:41:23.596Z,26.2
2019-02-06T01:42:13.603Z,26.2
2019-02-06T01:43:02.818Z,26.2
2019-02-06T01:43:52.849Z,26.2
2019-02-06T01:44:43.606Z,26.2
2019-02-06T01:45:34.901Z,26.2
2019-02-06T01:46:23.625Z,26.2
2019-02-06T01:47:14.103Z,26.2
2019-02-06T01:48:03.471Z,26.2
2019-02-06T01:48:55.766Z,26.2
2019-02-06T01:49:46.928Z,26.2
2019-02-06T01:50:34.168Z,26.2
2019-02-06T01:51:24.241Z,26.1
2019-02-06T01:52:14.310Z,26.1
2019-02-06T01:53:03.523Z,26.1
2019-02-06T01:53:54.288Z,26.2
2019-02-06T01:54:46.241Z,26.1
2019-02-06T01:55:34.535Z,26.1
2019-02-06T01:56:24.390Z,26.1
2019-02-06T01:57:14.435Z,26.1
2019-02-06T01:58:05.038Z,26.1
2019-02-06T01:58:54.490Z,26.1
2019-02-06T01:59:44.687Z,26.1
2019-02-06T02:00:35.917Z,26.1
2019-02-06T02:01:24.957Z,26.1
2019-02-06T02:02:14.455Z,26.2
2019-02-06T02:03:05.462Z,26.2
2019-02-06T02:03:56.635Z,26.3
2019-02-06T02:04:45.295Z,26.3
2019-02-06T02:05:37.795Z,26.4
2019-02-06T02:06:25.311Z,26.4
2019-02-06T02:07:14.387Z,26.5
2019-02-06T02:08:04.382Z,26.6
2019-02-06T02:08:54.921Z,26.7
2019-02-06T02:09:46.870Z,26.8
2019-02-06T02:10:35.322Z,26.9
2019-02-06T02:11:25.369Z,27
2019-02-06T02:12:15.214Z,27.1
2019-02-06T02:13:06.925Z,27.2
2019-02-06T02:13:55.009Z,27.3
2019-02-06T02:14:45.339Z,27.4
2019-02-06T02:15:35.391Z,27.5
2019-02-06T02:16:26.114Z,27.6
2019-02-06T02:17:16.076Z,27.8
2019-02-06T02:18:57.522Z,27.9
2019-02-06T02:19:46.261Z,28.1
2019-02-06T02:20:36.434Z,28.3
2019-02-06T02:21:25.840Z,28.4
2019-02-06T02:22:15.925Z,28.5
2019-02-06T02:23:06.206Z,28.6
2019-02-06T02:23:56.649Z,28.7
2019-02-06T02:24:46.863Z,28.8
2019-02-06T02:25:36.086Z,28.9
2019-02-06T02:26:25.878Z,29.1
2019-02-06T02:27:16.499Z,29.1
2019-02-06T02:28:09.275Z,29.3
2019-02-06T02:28:56.624Z,29.4
2019-02-06T02:29:46.671Z,29.5
2019-02-06T02:30:36.782Z,29.6
2019-02-06T02:31:27.518Z,29.7
2019-02-06T02:32:16.869Z,29.8
2019-02-06T02:33:06.651Z,29.9
2019-02-06T02:33:55.883Z,30
2019-02-06T02:34:46.757Z,30.1
2019-02-06T02:35:36.825Z,30.2
2019-02-06T02:36:27.190Z,30.3
2019-02-06T02:37:20.141Z,30.4
2019-02-06T02:38:07.957Z,30.5
2019-02-06T02:38:57.050Z,30.6
2019-02-06T02:39:47.823Z,30.7
2019-02-06T02:40:37.489Z,30.8
2019-02-06T02:41:27.518Z,30.9
2019-02-06T02:42:16.983Z,31
2019-02-06T02:43:08.161Z,31.1
2019-02-06T02:43:57.987Z,31.2
2019-02-06T02:44:48.013Z,31.3
2019-02-06T02:45:38.289Z,31.3
2019-02-06T02:46:30.583Z,31.4
2019-02-06T02:47:18.352Z,31.5
2019-02-06T02:48:08.298Z,31.6
2019-02-06T02:48:58.786Z,31.6
2019-02-06T02:49:48.089Z,31.8
2019-02-06T02:50:37.629Z,31.8
2019-02-06T02:51:28.580Z,31.9
2019-02-06T02:52:18.982Z,31.9
2019-02-06T02:53:08.147Z,32
2019-02-06T02:53:58.749Z,32.1
2019-02-06T02:54:48.740Z,32.2
2019-02-06T02:55:42.318Z,32.3
2019-02-06T02:56:29.262Z,32.4
2019-02-06T02:57:18.918Z,32.4
2019-02-06T02:58:08.460Z,32.5
2019-02-06T02:58:58.784Z,32.6
2019-02-06T02:59:48.539Z,32.7
2019-02-06T03:00:38.901Z,32.8
2019-02-06T03:01:30.522Z,32.8
2019-02-06T03:02:19.606Z,32.9
2019-02-06T03:03:09.054Z,33
2019-02-06T03:03:59.265Z,33.1
2019-02-06T03:04:50.626Z,33.2
2019-02-06T03:08:22.960Z,33.6
2019-02-06T03:09:11.136Z,33.7
2019-02-06T03:10:01.704Z,33.8
2019-02-06T03:10:51.135Z,33.8
2019-02-06T03:11:41.238Z,33.9
2019-02-06T03:12:31.158Z,34
2019-02-06T03:13:20.976Z,34.1
2019-02-06T03:14:11.622Z,34.2
2019-02-06T03:15:02.210Z,34.3
2019-02-06T03:15:52.003Z,34.4
2019-02-06T03:16:42.128Z,34.4
2019-02-06T03:17:34.734Z,34.5
2019-02-06T03:18:21.321Z,34.6
2019-02-06T03:19:12.236Z,34.7
2019-02-06T03:20:02.304Z,34.8
2019-02-06T03:20:52.561Z,34.8
2019-02-06T03:21:42.386Z,34.9
2019-02-06T03:22:35.988Z,35
2019-02-06T03:23:23.069Z,35.1
2019-02-06T03:24:12.101Z,35.1
2019-02-06T03:25:02.991Z,35.2
2019-02-06T03:25:52.482Z,35.3
2019-02-06T03:26:44.732Z,35.3
2019-02-06T03:27:32.805Z,35.4
2019-02-06T03:28:22.848Z,35.4
2019-02-06T03:29:12.350Z,35.5
2019-02-06T03:30:02.339Z,35.5
2019-02-06T03:30:52.913Z,35.6
2019-02-06T03:31:42.873Z,35.6
2019-02-06T03:32:32.892Z,35.6
2019-02-06T03:33:23.830Z,35.7
2019-02-06T03:34:12.791Z,35.8
2019-02-06T03:35:03.077Z,35.8
2019-02-06T03:35:55.629Z,35.8
2019-02-06T03:36:46.410Z,35.8
2019-02-06T03:37:33.486Z,35.9
2019-02-06T03:38:23.314Z,35.9
2019-02-06T03:39:13.366Z,35.9
2019-02-06T03:40:03.378Z,35.9
2019-02-06T03:40:53.197Z,35.9
2019-02-06T03:41:45.582Z,36
2019-02-06T03:42:33.309Z,36
2019-02-06T03:43:24.035Z,36
2019-02-06T03:44:13.785Z,36
2019-02-06T03:45:03.815Z,35.9
2019-02-06T03:45:53.871Z,36
2019-02-06T03:46:44.281Z,36
2019-02-06T03:47:34.591Z,36
2019-02-06T03:48:24.261Z,36
2019-02-06T03:49:13.553Z,36
2019-02-06T03:50:04.465Z,36
2019-02-06T03:50:56.597Z,35.9
2019-02-06T03:51:44.683Z,35.9
2019-02-06T03:52:34.048Z,36
2019-02-06T03:53:24.051Z,36
2019-02-06T03:54:14.643Z,36
2019-02-06T03:55:04.513Z,36
2019-02-06T03:55:54.530Z,36
2019-02-06T03:56:45.207Z,36
2019-02-06T03:57:34.925Z,36
2019-02-06T03:58:24.416Z,36.1
2019-02-06T03:59:15.027Z,36
2019-02-06T04:00:07.302Z,36.1
2019-02-06T04:00:54.852Z,36.1
2019-02-06T04:01:44.910Z,36.1
2019-02-06T04:02:34.959Z,36.1
2019-02-06T04:03:25.320Z,36.1
2019-02-06T04:04:15.087Z,36.1
2019-02-06T04:05:05.117Z,36.1
2019-02-06T04:05:57.004Z,36.1
2019-02-06T04:07:07.168Z,36.1
2019-02-06T04:07:35.034Z,36.1
2019-02-06T04:08:25.371Z,36.1
2019-02-06T04:09:15.564Z,36.1
2019-02-06T04:10:05.154Z,36.2
2019-02-06T04:10:55.316Z,36.1
2019-02-06T04:11:45.992Z,36.2
2019-02-06T04:12:35.421Z,36.2
2019-02-06T04:13:25.744Z,36.2
2019-02-06T04:14:15.568Z,36.2
2019-02-06T04:15:09.049Z,36.2
2019-02-06T04:15:56.213Z,36.2
2019-02-06T04:16:46.376Z,36.2
2019-02-06T04:17:34.644Z,36.2
2019-02-06T04:18:25.566Z,36.2
2019-02-06T04:19:15.919Z,36.2
2019-02-06T04:20:06.342Z,36.2
2019-02-06T04:20:56.736Z,36.2
2019-02-06T04:21:46.729Z,36.2
2019-02-06T04:22:36.136Z,36.2
2019-02-06T04:23:26.479Z,36.3
2019-02-06T04:24:19.226Z,36.3
2019-02-06T04:25:06.315Z,36.3
2019-02-06T04:25:56.896Z,36.3
2019-02-06T04:26:46.945Z,36.3
2019-02-06T04:27:37.113Z,36.3
2019-02-06T04:28:26.761Z,36.3
2019-02-06T04:29:17.137Z,36.3
2019-02-06T04:30:07.383Z,36.3
2019-02-06T04:30:57.392Z,36.3
2019-02-06T04:31:47.054Z,36.3
2019-02-06T04:32:36.858Z,36.3
2019-02-06T04:33:29.666Z,36.3
2019-02-06T06:06:19.894Z,35.4
2019-02-06T06:07:11.059Z,35.4
2019-02-06T06:08:03.422Z,35.4
2019-02-06T06:08:50.425Z,35.4
2019-02-06T06:09:40.474Z,35.4
2019-02-06T06:10:31.377Z,35.4
2019-02-06T06:11:21.133Z,35.4
2019-02-06T06:12:11.441Z,35.4
2019-02-06T06:13:01.180Z,35.4
2019-02-06T06:13:51.876Z,35.4
2019-02-06T06:14:41.886Z,35.4
2019-02-06T06:15:31.376Z,35.4
2019-02-06T06:16:21.709Z,35.4
2019-02-06T06:17:12.399Z,35.3
2019-02-06T06:18:02.109Z,35.3
2019-02-06T06:18:52.105Z,35.3
2019-02-06T06:19:41.941Z,35.3
2019-02-06T06:20:31.969Z,35.3
2019-02-06T06:21:22.284Z,35.3
2019-02-06T06:22:12.100Z,35.3
2019-02-06T06:23:04.246Z,35.3
2019-02-06T06:23:52.181Z,35.3
2019-02-06T06:24:41.698Z,35.3
2019-02-06T06:25:32.418Z,35.3
2019-02-06T06:26:22.099Z,35.2
2019-02-06T06:27:12.450Z,35.2
2019-02-06T06:28:02.788Z,35.2
2019-02-06T06:28:53.368Z,35.2
2019-02-06T06:29:42.673Z,35.2
2019-02-06T06:30:32.571Z,35.2
2019-02-06T06:31:22.473Z,35.1
2019-02-06T06:32:14.276Z,35.1
2019-02-06T06:33:03.188Z,35.1
2019-02-06T06:33:52.681Z,35.1
2019-02-06T06:34:42.132Z,35.1
2019-02-06T06:35:32.465Z,35.1
2019-02-06T06:36:23.058Z,35.1
2019-02-06T06:37:13.303Z,35.1
2019-02-06T06:38:08.375Z,35.1
2019-02-06T06:38:53.348Z,35.1
2019-02-06T06:39:43.585Z,35.1
2019-02-06T06:40:32.550Z,35
2019-02-06T06:41:22.623Z,35
2019-02-06T06:42:12.980Z,35
2019-02-06T06:43:03.587Z,35
2019-02-06T06:43:53.601Z,35
2019-02-06T06:44:43.367Z,35
2019-02-06T06:45:33.722Z,35
2019-02-06T06:46:22.642Z,34.9
2019-02-06T06:47:16.495Z,34.9
2019-02-06T06:48:03.622Z,34.9
2019-02-06T06:48:53.394Z,34.9
2019-02-06T06:49:44.037Z,34.9
2019-02-06T06:50:34.469Z,34.9
2019-02-06T06:51:24.454Z,34.9
2019-02-06T06:52:13.889Z,34.9
2019-02-06T06:53:04.729Z,34.9
2019-02-06T06:53:53.708Z,34.8
2019-02-06T06:54:44.630Z,34.9
2019-02-06T06:55:37.619Z,34.8
2019-02-06T06:56:25.647Z,34.8
2019-02-06T06:57:17.378Z,34.8
2019-02-06T06:58:04.341Z,34.8
2019-02-06T06:58:55.026Z,34.8
2019-02-06T06:59:44.733Z,34.8
2019-02-06T07:00:33.922Z,34.8
2019-02-06T07:01:24.543Z,34.8
2019-02-06T07:02:16.039Z,34.8
2019-02-06T07:03:04.418Z,34.8
2019-02-06T07:03:54.713Z,34.7
2019-02-06T07:06:20.693Z,34.7
2019-02-06T07:07:10.690Z,34.6
2019-02-06T07:08:17.188Z,34.6
2019-02-06T07:08:51.088Z,34.6
2019-02-06T07:09:41.246Z,34.6
2019-02-06T07:10:31.547Z,34.6
2019-02-06T07:11:22.848Z,34.6
2019-02-06T07:12:11.318Z,34.6
2019-02-06T07:13:00.832Z,34.5
2019-02-06T07:13:54.656Z,34.5
2019-02-06T07:14:41.553Z,34.5
2019-02-06T07:15:31.962Z,34.5
2019-02-06T07:16:21.065Z,34.5
2019-02-06T07:17:12.640Z,34.5
2019-02-06T07:18:01.532Z,34.5
2019-02-06T07:18:52.055Z,34.4
2019-02-06T07:19:42.239Z,34.4
2019-02-06T07:20:33.494Z,34.4
2019-02-06T07:21:21.677Z,34.4
2019-02-06T07:22:12.295Z,34.4
2019-02-06T07:23:01.812Z,34.4
2019-02-06T07:23:51.854Z,34.4
2019-02-06T07:24:42.186Z,34.4
2019-02-06T07:25:31.412Z,34.4
2019-02-06T07:26:23.404Z,34.3
2019-02-06T07:27:12.394Z,34.4
2019-02-06T07:28:02.532Z,34.4
2019-02-06T07:28:51.951Z,34.3
2019-02-06T07:29:43.457Z,34.3
2019-02-06T07:30:32.668Z,34.3
2019-02-06T07:31:23.037Z,34.3
2019-02-06T07:32:13.004Z,34.3
2019-02-06T07:33:01.709Z,34.3
2019-02-06T07:33:52.125Z,34.3
2019-02-06T07:34:42.639Z,34.3
2019-02-06T07:35:34.476Z,34.3
2019-02-06T07:36:22.451Z,34.3
2019-02-06T07:37:12.931Z,34.3
2019-02-06T07:38:02.856Z,34.2
2019-02-06T07:38:53.456Z,34.2
2019-02-06T07:39:42.693Z,34.2
2019-02-06T07:40:33.083Z,34.2
2019-02-06T07:41:23.849Z,34.2
2019-02-06T07:42:13.394Z,34.2
2019-02-06T07:43:03.923Z,34.2
2019-02-06T07:43:53.248Z,34.2
2019-02-06T07:44:45.835Z,34.1
2019-02-06T07:45:33.653Z,34.1
2019-02-06T07:46:24.026Z,34.1
2019-02-06T07:47:14.028Z,34.1
2019-02-06T07:48:03.183Z,34.1
2019-02-06T07:48:54.195Z,34.1
2019-02-06T07:49:43.950Z,34.1
2019-02-06T07:50:34.810Z,34.1
2019-02-06T07:51:24.130Z,34.1
2019-02-06T07:52:13.933Z,34
2019-02-06T07:53:04.050Z,34
2019-02-06T07:53:55.915Z,34
2019-02-06T07:54:44.022Z,34
2019-02-06T07:55:33.809Z,33.9
2019-02-06T07:56:24.196Z,34
2019-02-06T07:57:13.897Z,33.9
2019-02-06T07:58:04.562Z,33.9
2019-02-06T07:58:56.012Z,33.9
2019-02-06T07:59:47.069Z,33.9
2019-02-06T08:00:34.559Z,33.9
2019-02-06T08:01:24.676Z,33.9
2019-02-06T08:02:14.572Z,33.9
2019-02-06T08:03:04.914Z,33.9
2019-02-06T08:03:54.407Z,33.9
2019-02-06T08:04:46.939Z,33.9
2019-02-06T08:05:35.474Z,33.9
2019-02-06T08:06:24.840Z,33.9
2019-02-06T08:07:14.879Z,33.9
2019-02-06T08:08:04.743Z,33.9
2019-02-06T08:08:56.968Z,33.9
2019-02-06T08:09:45.053Z,33.9
2019-02-06T08:10:35.390Z,33.8
2019-02-06T08:11:25.184Z,33.8
2019-02-06T08:12:15.797Z,33.8
2019-02-06T08:13:04.872Z,33.8
2019-02-06T08:13:55.332Z,33.8
2019-02-06T08:14:46.827Z,33.8
2019-02-06T08:15:35.447Z,33.8
2019-02-06T08:16:25.817Z,33.8
2019-02-06T08:17:15.294Z,33.8
2019-02-06T08:18:07.280Z,33.8
2019-02-06T08:18:55.983Z,33.8
2019-02-06T08:19:46.174Z,33.8
2019-02-06T08:20:35.824Z,33.7
2019-02-06T08:21:25.594Z,33.8
2019-02-06T08:22:16.011Z,33.7
2019-02-06T08:23:06.007Z,33.7
2019-02-06T08:23:58.137Z,33.7
2019-02-06T08:24:46.374Z,33.7
2019-02-06T08:25:36.579Z,33.7
2019-02-06T08:26:26.246Z,33.7
2019-02-06T08:27:16.894Z,33.6
2019-02-06T08:28:05.853Z,33.7
2019-02-06T08:28:56.676Z,33.6
2019-02-06T08:29:46.717Z,33.6
2019-02-06T08:30:36.526Z,33.6
2019-02-06T08:31:27.211Z,33.6
2019-02-06T08:32:16.618Z,33.6
2019-02-06T08:33:08.721Z,33.6
2019-02-06T08:33:56.446Z,33.6
2019-02-06T08:34:46.809Z,33.6
2019-02-06T08:35:37.148Z,33.6
2019-02-06T08:36:27.015Z,33.6
2019-02-06T08:37:16.958Z,33.6
2019-02-06T08:38:07.682Z,33.6
2019-02-06T08:39:00.706Z,33.6
2019-02-06T08:39:47.682Z,33.5
2019-02-06T08:40:37.618Z,33.6
2019-02-06T08:41:27.254Z,33.6
2019-02-06T08:42:19.655Z,33.5
2019-02-06T08:43:07.680Z,33.5
2019-02-06T08:43:57.438Z,33.4
2019-02-06T08:44:47.805Z,33.5
2019-02-06T08:45:37.870Z,33.4
2019-02-06T08:46:28.098Z,33.5
2019-02-06T08:47:18.058Z,33.4
2019-02-06T08:48:08.475Z,33.4
2019-02-06T08:48:58.045Z,33.4
2019-02-06T08:49:48.310Z,33.4
2019-02-06T08:50:38.157Z,33.4
2019-02-06T08:51:29.763Z,33.4
2019-02-06T08:52:18.060Z,33.4
2019-02-06T08:53:08.466Z,33.4
2019-02-06T08:53:58.525Z,33.4
2019-02-06T08:54:48.585Z,33.4
2019-02-06T08:55:37.972Z,33.4
2019-02-06T08:56:28.335Z,33.3
2019-02-06T08:57:20.459Z,33.4
2019-02-06T08:58:08.471Z,33.4
2019-02-06T08:58:58.729Z,33.3
2019-02-06T08:59:48.262Z,33.3
2019-02-06T09:00:40.240Z,33.3
2019-02-06T09:01:28.660Z,33.3
2019-02-06T09:02:18.137Z,33.3
2019-02-06T09:03:08.787Z,33.3
2019-02-06T09:03:58.817Z,33.2
2019-02-06T09:05:01.279Z,33.3
2019-02-06T09:05:38.694Z,33.3
2019-02-06T09:06:31.137Z,33.3
2019-02-06T09:07:18.896Z,33.2
2019-02-06T09:08:09.125Z,33.2
2019-02-06T09:09:05.017Z,33.2
2019-02-06T09:09:49.534Z,33.2
2019-02-06T09:10:39.884Z,33.3
2019-02-06T09:11:29.371Z,33.2
2019-02-06T09:12:19.031Z,33.2
2019-02-06T09:13:09.786Z,33.1
2019-02-06T09:13:59.813Z,33.2
2019-02-06T09:14:49.600Z,33.1
2019-02-06T09:15:42.130Z,33.1
2019-02-06T09:16:30.256Z,33.1
2019-02-06T09:17:20.418Z,33.1
2019-02-06T09:18:10.091Z,33.1
2019-02-06T09:19:00.143Z,33.1
2019-02-06T09:19:50.037Z,33.1
2019-02-06T09:20:39.978Z,33.1
2019-02-06T09:21:30.898Z,33.1
2019-02-06T09:22:20.663Z,33.1
2019-02-06T09:23:10.485Z,33.1
2019-02-06T09:24:00.386Z,33.1
2019-02-06T09:24:52.526Z,33.1
2019-02-06T09:25:40.890Z,33.1
2019-02-06T09:26:36.828Z,33.1
2019-02-06T09:27:20.503Z,33
2019-02-06T09:28:10.783Z,33
2019-02-06T09:29:00.950Z,33
2019-02-06T09:29:51.168Z,33.1
2019-02-06T09:30:43.010Z,33
2019-02-06T09:31:31.008Z,32.9
2019-02-06T09:32:21.171Z,33.1
2019-02-06T09:33:10.603Z,33
2019-02-06T09:34:00.635Z,33
2019-02-06T09:34:50.445Z,32.9
2019-02-06T09:35:41.053Z,32.9
2019-02-06T09:36:31.502Z,32.9
2019-02-06T09:37:21.171Z,32.9
2019-02-06T09:38:11.174Z,32.9
2019-02-06T09:39:13.930Z,32.9
2019-02-06T09:39:54.442Z,32.9
2019-02-06T09:40:41.409Z,32.9
2019-02-06T09:41:31.877Z,32.9
2019-02-06T09:42:21.622Z,32.9
2019-02-06T09:43:11.299Z,32.9
2019-02-06T09:44:01.332Z,32.9
2019-02-06T09:44:52.204Z,32.8
2019-02-06T09:45:43.202Z,32.8
2019-02-06T09:46:31.787Z,32.9
2019-02-06T09:47:22.184Z,32.9
2019-02-06T09:48:12.293Z,32.8
2019-02-06T09:49:03.511Z,32.8
2019-02-06T09:49:55.136Z,32.8
2019-02-06T09:50:41.819Z,32.8
2019-02-06T09:51:32.523Z,32.8
2019-02-06T09:52:25.665Z,32.8
2019-02-06T09:53:11.691Z,32.8
2019-02-06T09:54:02.621Z,32.8
2019-02-06T09:54:54.406Z,32.8
2019-02-06T09:55:41.726Z,32.8
2019-02-06T09:56:32.593Z,32.8
2019-02-06T09:57:22.560Z,32.8
2019-02-06T09:58:12.891Z,32.8
2019-02-06T09:59:03.276Z,32.8
2019-02-06T09:59:52.531Z,32.8
2019-02-06T10:00:43.298Z,32.7
2019-02-06T10:01:33.071Z,32.8
2019-02-06T10:02:22.601Z,32.7
2019-02-06T10:03:12.421Z,32.7
2019-02-06T10:04:05.594Z,32.7
2019-02-06T10:04:53.350Z,32.7
2019-02-06T10:07:20.888Z,32.6
2019-02-06T10:08:11.138Z,32.7
2019-02-06T10:09:00.333Z,32.6
2019-02-06T10:09:53.442Z,32.6
2019-02-06T10:10:40.713Z,32.6
2019-02-06T10:11:31.070Z,32.6
2019-02-06T10:12:20.578Z,32.6
2019-02-06T10:13:11.565Z,32.6
2019-02-06T10:14:01.970Z,32.6
2019-02-06T10:14:51.293Z,32.6
2019-02-06T10:15:41.685Z,32.6
2019-02-06T10:16:31.258Z,32.6
2019-02-06T10:17:21.219Z,32.6
2019-02-06T10:18:11.545Z,32.6
2019-02-06T10:19:03.695Z,32.6
2019-02-06T10:19:51.392Z,32.6
2019-02-06T10:20:41.435Z,32.5
2019-02-06T10:21:32.212Z,32.5
2019-02-06T10:22:21.535Z,32.5
2019-02-06T10:23:11.947Z,32.5
2019-02-06T10:24:01.397Z,32.5
2019-02-06T10:24:52.254Z,32.5
2019-02-06T10:25:41.829Z,32.5
2019-02-06T10:26:31.827Z,32.4
2019-02-06T10:27:25.078Z,32.5
2019-02-06T10:28:13.358Z,32.4
2019-02-06T10:29:02.094Z,32.4
2019-02-06T10:29:51.944Z,32.4
2019-02-06T10:30:42.382Z,32.5
2019-02-06T10:31:34.864Z,32.4
2019-02-06T10:32:22.789Z,32.4
2019-02-06T10:33:12.594Z,32.4
2019-02-06T10:34:03.206Z,32.4
2019-02-06T10:34:52.504Z,32.4
2019-02-06T10:35:42.775Z,32.4
2019-02-06T10:36:32.563Z,32.4
2019-02-06T10:37:24.198Z,32.4
2019-02-06T10:38:12.645Z,32.4
2019-02-06T10:39:02.701Z,32.4
2019-02-06T10:39:52.751Z,32.3
2019-02-06T10:40:43.091Z,32.3
2019-02-06T10:41:32.674Z,32.4
2019-02-06T10:42:22.957Z,32.3
2019-02-06T10:43:15.628Z,32.3
2019-02-06T10:44:03.286Z,32.3
2019-02-06T10:44:53.438Z,32.3
2019-02-06T10:45:43.560Z,32.3
2019-02-06T10:46:32.673Z,32.3
2019-02-06T10:47:23.538Z,32.3
2019-02-06T10:48:13.416Z,32.3
2019-02-06T10:49:03.135Z,32.3
2019-02-06T10:49:54.033Z,32.3
2019-02-06T10:50:43.523Z,32.3
2019-02-06T10:51:33.101Z,32.3
2019-02-06T10:52:26.510Z,32.3
2019-02-06T10:53:13.454Z,32.2
2019-02-06T10:54:04.321Z,32.2
2019-02-06T10:54:54.106Z,32.2
2019-02-06T10:55:43.307Z,32.2
2019-02-06T10:56:33.657Z,32.2
2019-02-06T10:57:24.103Z,32.2
2019-02-06T10:58:15.385Z,32.2
2019-02-06T10:59:04.380Z,32.2
2019-02-06T10:59:53.877Z,32.1
2019-02-06T11:00:44.624Z,32.2
2019-02-06T11:01:35.780Z,32.1
2019-02-06T11:02:23.847Z,32.1
2019-02-06T11:03:13.944Z,32.1
2019-02-06T11:04:04.389Z,32.1
2019-02-06T11:04:54.597Z,32.1
2019-02-06T11:05:44.087Z,32.1
2019-02-06T11:06:34.392Z,32.1
2019-02-06T11:07:25.990Z,32.1
2019-02-06T11:08:13.984Z,32.1
2019-02-06T11:09:04.582Z,32.1
2019-02-06T11:09:54.862Z,32.1
2019-02-06T11:10:45.229Z,32.1
2019-02-06T11:11:35.589Z,32.1
2019-02-06T11:12:28.272Z,32.1
2019-02-06T11:13:15.136Z,32.1
2019-02-06T11:14:05.696Z,32
2019-02-06T11:14:55.463Z,32.1
2019-02-06T11:15:45.799Z,32
2019-02-06T11:16:38.066Z,32
2019-02-06T11:17:25.928Z,32
2019-02-06T11:18:15.709Z,32
2019-02-06T11:19:06.049Z,32
2019-02-06T11:19:55.704Z,32
2019-02-06T11:20:45.678Z,31.9
2019-02-06T11:21:35.923Z,32
2019-02-06T11:22:26.506Z,31.9
2019-02-06T11:23:16.608Z,31.9
2019-02-06T11:24:05.088Z,31.9
2019-02-06T11:24:55.388Z,31.9
2019-02-06T11:25:48.773Z,31.9
2019-02-06T11:26:36.298Z,31.9
2019-02-06T11:27:26.053Z,31.9
2019-02-06T11:28:15.345Z,31.9
2019-02-06T11:29:06.458Z,31.9
2019-02-06T11:29:56.118Z,31.9
2019-02-06T11:30:46.322Z,31.9
2019-02-06T11:31:36.995Z,31.9
2019-02-06T11:32:26.160Z,31.9
2019-02-06T11:33:16.738Z,31.9
2019-02-06T11:34:06.525Z,31.9
2019-02-06T11:34:58.135Z,31.9
2019-02-06T11:35:46.963Z,31.8
2019-02-06T11:36:36.487Z,31.8
2019-02-06T11:37:27.005Z,31.8
2019-02-06T11:38:16.248Z,31.8
2019-02-06T11:39:07.175Z,31.8
2019-02-06T11:40:03.765Z,31.8
2019-02-06T11:40:48.250Z,31.8
2019-02-06T11:41:36.757Z,31.8
2019-02-06T11:42:26.599Z,31.8
2019-02-06T11:43:16.888Z,31.8
2019-02-06T11:44:21.328Z,31.8
2019-02-06T11:44:57.842Z,31.8
2019-02-06T11:45:47.415Z,31.7
2019-02-06T11:46:37.677Z,31.8
2019-02-06T11:47:28.028Z,31.7
2019-02-06T11:48:17.772Z,31.7
2019-02-06T11:49:07.859Z,31.7
2019-02-06T11:49:59.717Z,31.7
2019-02-06T11:50:47.794Z,31.7
2019-02-06T11:51:38.014Z,31.7
2019-02-06T11:52:28.048Z,31.7
2019-02-06T11:53:18.901Z,31.7
2019-02-06T11:54:08.206Z,31.7
2019-02-06T11:54:58.374Z,31.6
2019-02-06T11:55:48.301Z,31.6
2019-02-06T11:56:37.818Z,31.6
2019-02-06T11:57:29.351Z,31.6
2019-02-06T11:58:17.929Z,31.6
2019-02-06T11:59:10.926Z,31.6
2019-02-06T11:59:58.611Z,31.6
2019-02-06T12:00:51.383Z,31.6
2019-02-06T12:01:38.471Z,31.6
2019-02-06T12:02:40.876Z,31.6
2019-02-06T12:03:18.304Z,31.6
2019-02-06T12:04:08.943Z,31.6
2019-02-06T12:04:59.673Z,31.6
2019-02-06T12:07:19.840Z,31.6
2019-02-06T12:08:14.011Z,31.6
2019-02-06T12:08:59.963Z,31.6
2019-02-06T12:09:49.838Z,31.5
2019-02-06T12:10:43.323Z,31.5
2019-02-06T12:11:30.718Z,31.5
2019-02-06T12:12:20.727Z,31.5
2019-02-06T12:13:11.090Z,31.5
2019-02-06T12:14:01.216Z,31.5
2019-02-06T12:14:50.355Z,31.5
2019-02-06T12:15:43.204Z,31.5
2019-02-06T12:16:33.664Z,31.5
2019-02-06T12:17:21.635Z,31.4
2019-02-06T12:18:10.814Z,31.4
2019-02-06T12:19:01.465Z,31.5
2019-02-06T12:19:53.653Z,31.4
2019-02-06T12:20:41.050Z,31.4
2019-02-06T12:21:31.410Z,31.4
2019-02-06T12:22:21.437Z,31.4
2019-02-06T12:23:11.749Z,31.4
2019-02-06T12:24:02.112Z,31.4
2019-02-06T12:24:51.324Z,31.4
2019-02-06T12:25:43.872Z,31.4
2019-02-06T12:26:32.001Z,31.4
2019-02-06T12:27:21.508Z,31.4
2019-02-06T12:28:12.110Z,31.4
2019-02-06T12:29:01.900Z,31.4
2019-02-06T12:29:52.481Z,31.4
2019-02-06T12:30:42.714Z,31.4
2019-02-06T12:31:32.364Z,31.4
2019-02-06T12:32:22.674Z,31.4
2019-02-06T12:33:12.196Z,31.3
2019-02-06T12:34:02.246Z,31.3
2019-02-06T12:34:55.402Z,31.3
2019-02-06T12:35:42.169Z,31.3
2019-02-06T12:36:32.411Z,31.3
2019-02-06T12:37:22.748Z,31.3
2019-02-06T12:38:12.429Z,31.3
2019-02-06T12:39:03.158Z,31.3
2019-02-06T12:39:52.990Z,31.3
2019-02-06T12:40:44.305Z,31.3
2019-02-06T12:41:33.301Z,31.3
2019-02-06T12:42:22.612Z,31.3
2019-02-06T12:43:15.281Z,31.3
2019-02-06T12:44:02.543Z,31.3
2019-02-06T12:44:52.591Z,31.3
2019-02-06T12:45:42.575Z,31.3
2019-02-06T12:46:34.845Z,31.3
2019-02-06T12:47:22.385Z,31.3
2019-02-06T12:48:13.068Z,31.3
2019-02-06T12:49:02.528Z,31.3